createdAt,value
2017-09-05T00:00:23.298Z,23.2
2017-09-05T00:01:31.390Z,23.2
2017-09-05T00:02:39.474Z,23.2
2017-09-05T00:03:47.561Z,23.2
2017-09-05T00:04:55.649Z,23.2
2017-09-05T00:06:03.738Z,23.2
2017-09-05T00:07:11.828Z,23.2
2017-09-05T00:08:19.918Z,23.2
2017-09-05T00:09:28.003Z,23.2
2017-09-05T00:10:36.090Z,23.2
2017-09-05T00:11:44.178Z,23.1
2017-09-05T00:12:52.270Z,23.1
2017-09-05T00:14:00.357Z,23.2
2017-09-05T00:15:08.445Z,23.1
2017-09-05T00:16:16.545Z,23.2
2017-09-05T00:17:24.634Z,23.1
2017-09-05T00:18:32.722Z,23.2
2017-09-05T00:19:40.831Z,23.2
2017-09-05T00:20:48.929Z,23.2
2017-09-05T00:21:57.020Z,23.2
2017-09-05T00:23:05.107Z,23.1
2017-09-05T00:24:13.196Z,23.1
2017-09-05T00:25:21.284Z,23.1
2017-09-05T00:26:29.373Z,23.2
2017-09-05T00:27:37.462Z,23.2
2017-09-05T00:28:45.549Z,23.1
2017-09-05T00:29:53.664Z,23.2
2017-09-05T00:31:01.736Z,23.1
2017-09-05T00:32:09.824Z,23.1
2017-09-05T00:33:17.911Z,23.2
2017-09-05T00:34:26.001Z,23.2
2017-09-05T00:35:34.093Z,23.2
2017-09-05T00:36:42.178Z,23.1
2017-09-05T00:37:50.265Z,23.1
2017-09-05T00:38:58.356Z,23.1
2017-09-05T00:40:06.447Z,23.1
2017-09-05T00:41:14.543Z,23.1
2017-09-05T00:42:22.627Z,23.1
2017-09-05T00:43:30.722Z,23.2
2017-09-05T00:44:38.801Z,23.1
2017-09-05T00:45:46.888Z,23.1
2017-09-05T00:46:54.983Z,23.1
2017-09-05T00:48:03.066Z,23.1
2017-09-05T00:49:11.165Z,23.1
2017-09-05T00:50:19.253Z,23.1
2017-09-05T00:51:27.344Z,23.1
2017-09-05T00:52:35.486Z,23.0
2017-09-05T00:53:43.518Z,23.1
2017-09-05T00:54:51.605Z,23.1
2017-09-05T00:55:59.693Z,23.1
2017-09-05T00:57:07.782Z,23.1
2017-09-05T00:58:15.871Z,23.0
2017-09-05T00:59:23.955Z,23.1
2017-09-05T01:00:32.050Z,23.0
2017-09-05T01:01:40.151Z,23.1
2017-09-05T01:02:48.220Z,23.0
2017-09-05T01:03:56.354Z,23.0
2017-09-05T01:05:04.452Z,23.1
2017-09-05T01:06:12.538Z,23.1
2017-09-05T01:07:20.626Z,23.1
2017-09-05T01:08:28.726Z,23.0
2017-09-05T01:09:36.804Z,23.1
2017-09-05T01:10:44.892Z,22.9
2017-09-05T01:11:52.992Z,23.0
2017-09-05T01:13:01.068Z,22.9
2017-09-05T01:14:09.154Z,22.9
2017-09-05T01:15:17.246Z,22.9
2017-09-05T01:16:25.331Z,23.0
2017-09-05T01:17:33.423Z,22.9
2017-09-05T01:18:41.508Z,23.0
2017-09-05T01:19:49.597Z,22.9
2017-09-05T01:20:57.684Z,22.9
2017-09-05T01:22:05.771Z,23.0
2017-09-05T01:23:13.861Z,22.9
2017-09-05T01:24:21.956Z,23.0
2017-09-05T01:25:30.038Z,22.9
2017-09-05T01:26:38.127Z,23.0
2017-09-05T01:27:46.234Z,22.9
2017-09-05T01:28:54.304Z,23.0
2017-09-05T01:30:02.389Z,23.0
2017-09-05T01:31:10.484Z,23.0
2017-09-05T01:32:18.570Z,22.9
2017-09-05T01:33:26.654Z,23.0
2017-09-05T01:34:34.749Z,22.9
2017-09-05T01:35:42.836Z,22.9
2017-09-05T01:36:50.925Z,22.9
2017-09-05T01:37:59.015Z,22.9
2017-09-05T01:39:07.103Z,23.0
2017-09-05T01:40:15.189Z,22.9
2017-09-05T01:41:23.275Z,22.9
2017-09-05T01:42:31.363Z,22.8
2017-09-05T01:43:39.452Z,22.8
2017-09-05T01:44:47.540Z,22.8
2017-09-05T01:45:55.633Z,22.9
2017-09-05T01:47:03.716Z,22.9
2017-09-05T01:48:11.806Z,22.9
2017-09-05T01:49:19.898Z,22.9
2017-09-05T01:50:27.985Z,22.9
2017-09-05T01:51:36.070Z,22.8
2017-09-05T01:52:44.156Z,22.9
2017-09-05T01:53:52.246Z,22.9
2017-09-05T01:55:00.338Z,22.8
2017-09-05T01:56:08.516Z,22.9
2017-09-05T01:57:16.601Z,22.8
2017-09-05T01:58:24.687Z,22.8
2017-09-05T01:59:32.773Z,22.8
2017-09-05T02:00:40.868Z,22.8
2017-09-05T02:01:49.104Z,22.8
2017-09-05T02:02:57.202Z,22.8
2017-09-05T02:04:05.279Z,22.8
2017-09-05T02:05:13.361Z,22.7
2017-09-05T02:06:21.451Z,22.8
2017-09-05T02:07:29.539Z,22.8
2017-09-05T02:08:37.627Z,22.8
2017-09-05T02:09:45.717Z,22.9
2017-09-05T02:10:53.807Z,22.8
2017-09-05T02:12:01.911Z,22.8
2017-09-05T02:13:10.001Z,22.7
2017-09-05T02:14:18.088Z,22.7
2017-09-05T02:15:26.176Z,22.8
2017-09-05T02:16:34.264Z,22.8
2017-09-05T02:17:42.353Z,22.8
2017-09-05T02:18:50.472Z,22.8
2017-09-05T02:19:58.563Z,22.8
2017-09-05T02:21:06.646Z,22.8
2017-09-05T02:22:14.733Z,22.8
2017-09-05T02:23:22.820Z,22.7
2017-09-05T02:24:30.909Z,22.7
2017-09-05T02:25:38.996Z,22.8
2017-09-05T02:26:47.086Z,22.8
2017-09-05T02:27:55.172Z,22.8
2017-09-05T02:29:03.357Z,22.8
2017-09-05T02:30:11.442Z,22.7
2017-09-05T02:31:19.529Z,22.7
2017-09-05T02:32:27.621Z,22.7
2017-09-05T02:33:35.707Z,22.7
2017-09-05T02:34:43.797Z,22.7
2017-09-05T02:35:51.884Z,22.7
2017-09-05T02:36:59.970Z,22.6
2017-09-05T02:38:08.059Z,22.6
2017-09-05T02:39:16.144Z,22.6
2017-09-05T02:40:24.233Z,22.6
2017-09-05T02:41:32.322Z,22.6
2017-09-05T02:42:40.424Z,22.7
2017-09-05T02:43:48.497Z,22.6
2017-09-05T02:44:56.586Z,22.6
2017-09-05T02:46:04.685Z,22.6
2017-09-05T02:47:12.771Z,22.6
2017-09-05T02:48:20.861Z,22.6
2017-09-05T02:49:28.954Z,22.6
2017-09-05T02:50:37.035Z,22.6
2017-09-05T02:51:45.123Z,22.6
2017-09-05T02:52:53.226Z,22.6
2017-09-05T02:54:01.313Z,22.6
2017-09-05T02:55:09.401Z,22.6
2017-09-05T02:56:17.489Z,22.6
2017-09-05T02:57:25.577Z,22.7
2017-09-05T02:58:33.666Z,22.6
2017-09-05T02:59:41.754Z,22.6
2017-09-05T03:00:49.844Z,22.6
2017-09-05T03:01:57.929Z,22.6
2017-09-05T03:03:06.018Z,22.6
2017-09-05T03:04:14.105Z,22.6
2017-09-05T03:05:22.194Z,22.6
2017-09-05T03:06:30.285Z,22.6
2017-09-05T03:07:38.370Z,22.6
2017-09-05T03:08:46.458Z,22.6
2017-09-05T03:09:54.544Z,22.6
2017-09-05T03:11:02.632Z,22.6
2017-09-05T03:12:10.720Z,22.6
2017-09-05T03:13:18.809Z,22.6
2017-09-05T03:14:26.899Z,22.6
2017-09-05T03:15:34.984Z,22.6
2017-09-05T03:16:43.076Z,22.6
2017-09-05T03:17:51.165Z,22.5
2017-09-05T03:18:59.249Z,22.6
2017-09-05T03:20:07.338Z,22.6
2017-09-05T03:21:15.425Z,22.5
2017-09-05T03:22:23.513Z,22.5
2017-09-05T03:23:31.602Z,22.5
2017-09-05T03:24:39.706Z,22.6
2017-09-05T03:25:47.775Z,22.5
2017-09-05T03:26:55.911Z,22.6
2017-09-05T03:28:03.951Z,22.6
2017-09-05T03:29:12.041Z,22.5
2017-09-05T03:30:20.127Z,22.5
2017-09-05T03:31:28.215Z,22.5
2017-09-05T03:32:36.304Z,22.5
2017-09-05T03:33:44.391Z,22.5
2017-09-05T03:34:52.477Z,22.5
2017-09-05T03:36:00.566Z,22.5
2017-09-05T03:37:08.652Z,22.5
2017-09-05T03:38:16.745Z,22.5
2017-09-05T03:39:24.829Z,22.5
2017-09-05T03:40:32.928Z,22.4
2017-09-05T03:41:41.007Z,22.4
2017-09-05T03:42:49.090Z,22.5
2017-09-05T03:43:57.178Z,22.4
2017-09-05T03:45:05.264Z,22.4
2017-09-05T03:46:13.354Z,22.4
2017-09-05T03:47:21.443Z,22.5
2017-09-05T03:48:29.538Z,22.4
2017-09-05T03:49:37.630Z,22.4
2017-09-05T03:50:45.714Z,22.4
2017-09-05T03:51:53.802Z,22.4
2017-09-05T03:53:01.890Z,22.4
2017-09-05T03:54:09.978Z,22.4
2017-09-05T03:55:18.066Z,22.4
2017-09-05T03:56:26.154Z,22.3
2017-09-05T03:57:34.240Z,22.4
2017-09-05T03:58:42.330Z,22.4
2017-09-05T03:59:50.414Z,22.3
2017-09-05T04:00:58.503Z,22.4
2017-09-05T04:02:06.593Z,22.3
2017-09-05T04:03:14.678Z,22.3
2017-09-05T04:04:22.767Z,22.3
2017-09-05T04:05:30.862Z,22.3
2017-09-05T04:06:38.952Z,22.3
2017-09-05T04:07:47.030Z,22.2
2017-09-05T04:08:55.117Z,22.3
2017-09-05T04:10:03.205Z,22.3
2017-09-05T04:11:11.298Z,22.3
2017-09-05T04:12:19.383Z,22.2
2017-09-05T04:13:27.556Z,22.2
2017-09-05T04:14:35.555Z,22.3
2017-09-05T04:15:43.646Z,22.3
2017-09-05T04:16:51.738Z,22.3
2017-09-05T04:17:59.833Z,22.3
2017-09-05T04:19:07.910Z,22.2
2017-09-05T04:20:16.000Z,22.2
2017-09-05T04:21:24.092Z,22.3
2017-09-05T04:22:32.190Z,22.2
2017-09-05T04:23:40.278Z,22.2
2017-09-05T04:24:48.367Z,22.2
2017-09-05T04:25:56.453Z,22.2
2017-09-05T04:27:04.545Z,22.2
2017-09-05T04:28:12.627Z,22.2
2017-09-05T04:29:20.715Z,22.2
2017-09-05T04:30:28.803Z,22.2
2017-09-05T04:31:36.891Z,22.1
2017-09-05T04:32:44.979Z,22.2
2017-09-05T04:33:53.064Z,22.2
2017-09-05T04:35:01.146Z,22.2
2017-09-05T04:36:09.238Z,22.2
2017-09-05T04:37:17.329Z,22.1
2017-09-05T04:38:25.416Z,22.2
2017-09-05T04:39:33.504Z,22.2
2017-09-05T04:40:41.592Z,22.2
2017-09-05T04:41:49.679Z,22.1
2017-09-05T04:42:57.766Z,22.1
2017-09-05T04:44:05.849Z,22.1
2017-09-05T04:45:13.938Z,22.1
2017-09-05T04:46:22.026Z,22.1
2017-09-05T04:47:30.118Z,22.1
2017-09-05T04:48:38.207Z,22.1
2017-09-05T04:49:46.295Z,22.2
2017-09-05T04:50:54.382Z,22.2
2017-09-05T04:52:02.612Z,22.1
2017-09-05T04:53:10.852Z,22.2
2017-09-05T04:54:18.769Z,22.1
2017-09-05T04:55:26.759Z,22.1
2017-09-05T04:56:34.854Z,22.1
2017-09-05T04:57:42.936Z,22.1
2017-09-05T04:58:51.026Z,22.1
2017-09-05T04:59:59.114Z,22.0
2017-09-05T05:01:07.202Z,22.1
2017-09-05T05:02:15.288Z,22.1
2017-09-05T05:03:23.382Z,22.0
2017-09-05T05:04:31.464Z,22.0
2017-09-05T05:05:39.567Z,22.1
2017-09-05T05:06:47.638Z,22.1
2017-09-05T05:07:55.726Z,22.0
2017-09-05T05:09:03.812Z,22.1
2017-09-05T05:10:11.900Z,22.0
2017-09-05T05:11:19.985Z,22.0
2017-09-05T05:12:28.076Z,22.1
2017-09-05T05:13:36.160Z,22.0
2017-09-05T05:14:44.247Z,22.1
2017-09-05T05:15:52.358Z,22.1
2017-09-05T05:17:00.433Z,22.0
2017-09-05T05:18:08.708Z,22.0
2017-09-05T05:19:16.613Z,22.0
2017-09-05T05:20:24.699Z,21.9
2017-09-05T05:21:32.783Z,22.0
2017-09-05T05:22:40.869Z,21.9
2017-09-05T05:23:48.956Z,22.1
2017-09-05T05:24:57.044Z,22.0
2017-09-05T05:26:05.131Z,22.0
2017-09-05T05:27:13.220Z,22.1
2017-09-05T05:28:21.307Z,21.9
2017-09-05T05:29:29.398Z,22.0
2017-09-05T05:30:37.481Z,22.1
2017-09-05T05:31:45.570Z,22.0
2017-09-05T05:32:53.682Z,22.0
2017-09-05T05:34:01.759Z,22.0
2017-09-05T05:35:09.848Z,21.9
2017-09-05T05:36:17.937Z,21.9
2017-09-05T05:37:26.026Z,22.0
2017-09-05T05:38:34.110Z,22.0
2017-09-05T05:39:42.202Z,22.0
2017-09-05T05:40:50.284Z,22.0
2017-09-05T05:41:58.372Z,21.9
2017-09-05T05:43:06.459Z,21.9
2017-09-05T05:44:14.546Z,21.9
2017-09-05T05:45:22.631Z,21.9
2017-09-05T05:46:30.721Z,21.9
2017-09-05T05:47:38.808Z,21.9
2017-09-05T05:48:46.894Z,21.9
2017-09-05T05:49:54.981Z,21.9
2017-09-05T05:51:03.070Z,21.9
2017-09-05T05:52:11.156Z,21.9
2017-09-05T05:53:19.245Z,21.9
2017-09-05T05:54:27.331Z,21.9
2017-09-05T05:55:35.457Z,21.9
2017-09-05T05:56:43.544Z,22.0
2017-09-05T05:57:51.632Z,21.9
2017-09-05T05:58:59.769Z,21.9
2017-09-05T06:00:07.822Z,21.9
2017-09-05T06:01:15.911Z,21.9
2017-09-05T06:02:23.996Z,21.9
2017-09-05T06:03:32.081Z,21.9
2017-09-05T06:04:40.209Z,21.9
2017-09-05T06:05:48.255Z,21.8
2017-09-05T06:06:56.344Z,21.9
2017-09-05T06:08:04.429Z,21.9
2017-09-05T06:09:12.521Z,21.9
2017-09-05T06:10:20.605Z,21.9
2017-09-05T06:11:28.695Z,21.8
2017-09-05T06:12:36.779Z,21.8
2017-09-05T06:13:44.864Z,21.8
2017-09-05T06:14:52.959Z,21.8
2017-09-05T06:16:01.050Z,21.8
2017-09-05T06:17:09.139Z,21.9
2017-09-05T06:18:17.224Z,21.8
2017-09-05T06:19:25.320Z,21.8
2017-09-05T06:20:33.397Z,21.8
2017-09-05T06:21:41.486Z,21.8
2017-09-05T06:22:49.573Z,21.8
2017-09-05T06:23:57.661Z,21.7
2017-09-05T06:25:05.750Z,21.8
2017-09-05T06:26:13.834Z,21.8
2017-09-05T06:27:21.933Z,21.8
2017-09-05T06:28:30.013Z,21.8
2017-09-05T06:29:38.094Z,21.8
2017-09-05T06:30:46.182Z,21.8
2017-09-05T06:31:54.269Z,21.7
2017-09-05T06:33:02.355Z,21.8
2017-09-05T06:34:10.441Z,21.8
2017-09-05T06:35:18.529Z,21.7
2017-09-05T06:36:26.616Z,21.7
2017-09-05T06:37:34.702Z,21.7
2017-09-05T06:38:42.790Z,21.8
2017-09-05T06:39:50.877Z,21.7
2017-09-05T06:40:58.963Z,21.7
2017-09-05T06:42:07.049Z,21.7
2017-09-05T06:43:15.143Z,21.7
2017-09-05T06:44:23.225Z,21.8
2017-09-05T06:45:31.310Z,21.7
2017-09-05T06:46:39.398Z,21.7
2017-09-05T06:47:47.486Z,21.8
2017-09-05T06:48:55.572Z,21.7
2017-09-05T06:50:03.734Z,21.7
2017-09-05T06:51:11.819Z,21.8
2017-09-05T06:52:19.908Z,21.7
2017-09-05T06:53:27.994Z,21.7
2017-09-05T06:54:36.080Z,21.7
2017-09-05T06:55:44.170Z,21.7
2017-09-05T06:56:52.255Z,21.7
2017-09-05T06:58:00.343Z,21.7
2017-09-05T06:59:08.438Z,21.8
2017-09-05T07:00:16.516Z,21.7
2017-09-05T07:01:24.619Z,21.8
2017-09-05T07:02:32.707Z,21.7
2017-09-05T07:03:40.796Z,21.7
2017-09-05T07:04:48.889Z,21.7
2017-09-05T07:05:56.969Z,21.7
2017-09-05T07:07:05.063Z,21.7
2017-09-05T07:08:13.149Z,21.6
2017-09-05T07:09:21.236Z,21.7
2017-09-05T07:10:29.322Z,21.7
2017-09-05T07:11:37.413Z,21.7
2017-09-05T07:12:45.510Z,21.7
2017-09-05T07:13:53.595Z,21.8
2017-09-05T07:15:01.682Z,21.7
2017-09-05T07:16:09.781Z,21.6
2017-09-05T07:17:17.897Z,21.7
2017-09-05T07:18:25.964Z,21.6
2017-09-05T07:19:34.050Z,21.7
2017-09-05T07:20:42.136Z,21.6
2017-09-05T07:21:50.228Z,21.7
2017-09-05T07:22:58.313Z,21.7
2017-09-05T07:24:06.407Z,21.6
2017-09-05T07:25:14.495Z,21.6
2017-09-05T07:26:22.581Z,21.7
2017-09-05T07:27:30.670Z,21.6
2017-09-05T07:28:38.757Z,21.6
2017-09-05T07:29:46.846Z,21.6
2017-09-05T07:30:54.928Z,21.7
2017-09-05T07:32:03.016Z,21.7
2017-09-05T07:33:11.103Z,21.6
2017-09-05T07:34:19.205Z,21.6
2017-09-05T07:35:27.289Z,21.7
2017-09-05T07:36:35.375Z,21.6
2017-09-05T07:37:43.472Z,21.6
2017-09-05T07:38:51.556Z,21.7
2017-09-05T07:39:59.643Z,21.6
2017-09-05T07:41:07.734Z,21.7
2017-09-05T07:42:15.819Z,21.6
2017-09-05T07:43:23.906Z,21.6
2017-09-05T07:44:31.994Z,21.6
2017-09-05T07:45:40.080Z,21.7
2017-09-05T07:46:48.166Z,21.7
2017-09-05T07:47:56.255Z,21.7
2017-09-05T07:49:04.342Z,21.6
2017-09-05T07:50:12.430Z,21.8
2017-09-05T07:51:20.516Z,21.8
2017-09-05T07:52:28.603Z,21.7
2017-09-05T07:53:36.687Z,21.7
2017-09-05T07:54:44.775Z,21.7
2017-09-05T07:55:52.867Z,21.6
2017-09-05T07:57:00.952Z,21.6
2017-09-05T07:58:09.036Z,21.6
2017-09-05T07:59:17.136Z,21.7
2017-09-05T08:00:25.220Z,21.6
2017-09-05T08:01:33.303Z,21.6
2017-09-05T08:02:41.397Z,21.7
2017-09-05T08:03:49.494Z,21.6
2017-09-05T08:04:57.582Z,21.6
2017-09-05T08:06:05.670Z,21.6
2017-09-05T08:07:13.758Z,21.6
2017-09-05T08:08:21.843Z,21.7
2017-09-05T08:09:29.929Z,21.6
2017-09-05T08:10:38.015Z,21.7
2017-09-05T08:11:46.103Z,21.6
2017-09-05T08:12:54.192Z,21.6
2017-09-05T08:14:02.276Z,21.7
2017-09-05T08:15:10.365Z,21.6
2017-09-05T08:16:18.452Z,21.7
2017-09-05T08:17:26.541Z,21.7
2017-09-05T08:18:34.627Z,21.7
2017-09-05T08:19:42.714Z,21.6
2017-09-05T08:20:50.807Z,21.7
2017-09-05T08:21:58.887Z,21.6
2017-09-05T08:23:06.974Z,21.8
2017-09-05T08:24:15.063Z,21.6
2017-09-05T08:25:23.152Z,21.7
2017-09-05T08:26:31.237Z,21.7
2017-09-05T08:27:39.325Z,21.7
2017-09-05T08:28:47.413Z,21.8
2017-09-05T08:29:55.500Z,21.7
2017-09-05T08:31:03.587Z,21.7
2017-09-05T08:32:11.674Z,21.8
2017-09-05T08:33:19.772Z,21.7
2017-09-05T08:34:27.852Z,21.7
2017-09-05T08:35:35.990Z,21.7
2017-09-05T08:36:44.026Z,21.8
2017-09-05T08:37:52.113Z,21.8
2017-09-05T08:39:00.197Z,21.8
2017-09-05T08:40:08.285Z,21.7
2017-09-05T08:41:16.384Z,21.8
2017-09-05T08:42:24.469Z,21.8
2017-09-05T08:43:32.558Z,21.8
2017-09-05T08:44:40.651Z,21.8
2017-09-05T08:45:48.734Z,21.8
2017-09-05T08:46:56.820Z,21.8
2017-09-05T08:48:04.906Z,21.8
2017-09-05T08:49:12.994Z,21.8
2017-09-05T08:50:21.085Z,21.8
2017-09-05T08:51:29.170Z,21.8
2017-09-05T08:52:37.256Z,21.8
2017-09-05T08:53:45.348Z,21.8
2017-09-05T08:54:53.431Z,21.8
2017-09-05T08:56:01.520Z,21.8
2017-09-05T08:57:09.606Z,21.8
2017-09-05T08:58:17.693Z,21.8
2017-09-05T08:59:25.781Z,21.9
2017-09-05T09:00:33.870Z,21.9
2017-09-05T09:01:41.956Z,21.8
2017-09-05T09:02:50.045Z,21.9
2017-09-05T09:03:58.133Z,21.9
2017-09-05T09:05:06.241Z,21.8
2017-09-05T09:06:14.306Z,21.9
2017-09-05T09:07:22.393Z,21.9
2017-09-05T09:08:30.482Z,21.9
2017-09-05T09:09:38.571Z,21.9
2017-09-05T09:10:46.658Z,21.9
2017-09-05T09:11:54.747Z,21.9
2017-09-05T09:13:02.840Z,21.9
2017-09-05T09:14:10.930Z,21.9
2017-09-05T09:15:19.015Z,21.9
2017-09-05T09:16:27.103Z,21.9
2017-09-05T09:17:35.190Z,21.8
2017-09-05T09:18:43.288Z,21.9
2017-09-05T09:19:51.376Z,21.8
2017-09-05T09:20:59.462Z,21.9
2017-09-05T09:22:07.630Z,21.9
2017-09-05T09:23:15.658Z,21.9
2017-09-05T09:24:23.747Z,22.0
2017-09-05T09:25:31.837Z,22.0
2017-09-05T09:26:39.933Z,21.9
2017-09-05T09:27:48.028Z,21.9
2017-09-05T09:28:56.116Z,21.9
2017-09-05T09:30:04.203Z,21.9
2017-09-05T09:31:12.306Z,21.9
2017-09-05T09:32:20.377Z,21.9
2017-09-05T09:33:28.473Z,21.9
2017-09-05T09:34:36.556Z,21.9
2017-09-05T09:35:44.640Z,21.9
2017-09-05T09:36:52.728Z,21.9
2017-09-05T09:38:00.816Z,21.9
2017-09-05T09:39:08.905Z,21.9
2017-09-05T09:40:17.019Z,21.9
2017-09-05T09:41:25.088Z,21.9
2017-09-05T09:42:33.175Z,21.9
2017-09-05T09:43:41.263Z,21.9
2017-09-05T09:44:49.352Z,21.9
2017-09-05T09:45:57.439Z,21.9
2017-09-05T09:47:05.543Z,21.9
2017-09-05T09:48:13.613Z,22.0
2017-09-05T09:49:21.709Z,21.9
2017-09-05T09:50:29.801Z,21.9
2017-09-05T09:51:37.888Z,21.9
2017-09-05T09:52:45.977Z,21.9
2017-09-05T09:53:54.064Z,21.9
2017-09-05T09:55:02.153Z,21.9
2017-09-05T09:56:10.239Z,21.9
2017-09-05T09:57:18.325Z,21.9
2017-09-05T09:58:26.413Z,21.9
2017-09-05T09:59:34.502Z,21.9
2017-09-05T10:00:42.603Z,21.9
2017-09-05T10:01:50.675Z,21.9
2017-09-05T10:02:58.765Z,21.9
2017-09-05T10:04:06.883Z,21.9
2017-09-05T10:05:14.941Z,21.9
2017-09-05T10:06:23.028Z,21.9
2017-09-05T10:07:31.114Z,21.9
2017-09-05T10:08:39.201Z,21.9
2017-09-05T10:09:47.289Z,21.9
2017-09-05T10:10:55.397Z,21.9
2017-09-05T10:12:03.466Z,22.0
2017-09-05T10:13:11.552Z,22.0
2017-09-05T10:14:19.667Z,22.0
2017-09-05T10:15:27.751Z,21.9
2017-09-05T10:16:35.840Z,21.9
2017-09-05T10:17:43.927Z,21.9
2017-09-05T10:18:52.019Z,22.0
2017-09-05T10:20:00.107Z,21.9
2017-09-05T10:21:08.193Z,22.0
2017-09-05T10:22:16.289Z,22.0
2017-09-05T10:23:24.377Z,22.0
2017-09-05T10:24:32.464Z,22.0
2017-09-05T10:25:40.551Z,21.9
2017-09-05T10:26:48.649Z,22.0
2017-09-05T10:27:56.733Z,22.0
2017-09-05T10:29:04.810Z,22.0
2017-09-05T10:30:12.901Z,22.0
2017-09-05T10:31:20.987Z,22.0
2017-09-05T10:32:29.075Z,21.9
2017-09-05T10:33:37.164Z,22.0
2017-09-05T10:34:45.251Z,22.0
2017-09-05T10:35:53.340Z,22.0
2017-09-05T10:37:01.427Z,22.0
2017-09-05T10:38:09.514Z,22.0
2017-09-05T10:39:17.601Z,22.1
2017-09-05T10:40:25.687Z,22.0
2017-09-05T10:41:33.775Z,22.1
2017-09-05T10:42:41.862Z,22.0
2017-09-05T10:43:49.952Z,22.0
2017-09-05T10:44:58.039Z,22.0
2017-09-05T10:46:06.126Z,22.0
2017-09-05T10:47:14.233Z,22.0
2017-09-05T10:48:22.300Z,22.0
2017-09-05T10:49:30.386Z,22.1
2017-09-05T10:50:38.476Z,22.0
2017-09-05T10:51:46.562Z,22.1
2017-09-05T10:52:54.650Z,22.1
2017-09-05T10:54:02.737Z,22.0
2017-09-05T10:55:10.887Z,22.1
2017-09-05T10:56:18.943Z,22.1
2017-09-05T10:57:27.034Z,22.1
2017-09-05T10:58:35.120Z,22.0
2017-09-05T10:59:43.208Z,22.1
2017-09-05T11:00:51.296Z,22.1
2017-09-05T11:01:59.380Z,22.1
2017-09-05T11:03:07.469Z,22.1
2017-09-05T11:04:15.558Z,22.1
2017-09-05T11:05:23.676Z,22.2
2017-09-05T11:06:31.752Z,22.1
2017-09-05T11:07:39.876Z,22.1
2017-09-05T11:08:47.925Z,22.1
2017-09-05T11:09:56.013Z,22.0
2017-09-05T11:11:04.101Z,22.1
2017-09-05T11:12:12.192Z,22.1
2017-09-05T11:13:20.276Z,22.1
2017-09-05T11:14:28.368Z,22.1
2017-09-05T11:15:36.453Z,22.2
2017-09-05T11:16:44.542Z,22.1
2017-09-05T11:17:52.640Z,22.1
2017-09-05T11:19:00.721Z,22.1
2017-09-05T11:20:08.851Z,22.1
2017-09-05T11:21:16.941Z,22.0
2017-09-05T11:22:25.027Z,22.1
2017-09-05T11:23:33.124Z,22.1
2017-09-05T11:24:41.204Z,22.1
2017-09-05T11:25:49.292Z,22.1
2017-09-05T11:26:57.382Z,22.1
2017-09-05T11:28:05.473Z,22.2
2017-09-05T11:29:13.560Z,22.2
2017-09-05T11:30:21.645Z,22.1
2017-09-05T11:31:29.730Z,22.2
2017-09-05T11:32:37.824Z,22.2
2017-09-05T11:33:45.917Z,22.2
2017-09-05T11:34:53.993Z,22.2
2017-09-05T11:36:02.120Z,22.2
2017-09-05T11:37:10.206Z,22.2
2017-09-05T11:38:18.295Z,22.2
2017-09-05T11:39:26.386Z,22.2
2017-09-05T11:40:34.471Z,22.2
2017-09-05T11:41:42.557Z,22.3
2017-09-05T11:42:50.647Z,22.2
2017-09-05T11:43:58.735Z,22.3
2017-09-05T11:45:06.829Z,22.2
2017-09-05T11:46:14.916Z,22.2
2017-09-05T11:47:23.024Z,22.2
2017-09-05T11:48:31.111Z,22.2
2017-09-05T11:49:39.202Z,22.3
2017-09-05T11:50:47.285Z,22.2
2017-09-05T11:51:55.372Z,22.2
2017-09-05T11:53:03.460Z,22.3
2017-09-05T11:54:11.549Z,22.2
2017-09-05T11:55:19.648Z,22.2
2017-09-05T11:56:27.735Z,22.3
2017-09-05T11:57:35.829Z,22.3
2017-09-05T11:58:43.911Z,22.3
2017-09-05T11:59:51.997Z,22.3
2017-09-05T12:01:00.092Z,22.2
2017-09-05T12:02:08.172Z,22.3
2017-09-05T12:03:16.262Z,22.3
2017-09-05T12:04:24.345Z,22.3
2017-09-05T12:05:32.437Z,22.3
2017-09-05T12:06:40.523Z,22.3
2017-09-05T12:07:48.612Z,22.3
2017-09-05T12:08:56.697Z,22.3
2017-09-05T12:10:04.787Z,22.3
2017-09-05T12:11:12.873Z,22.3
2017-09-05T12:12:20.961Z,22.3
2017-09-05T12:13:29.049Z,22.2
2017-09-05T12:14:37.141Z,22.3
2017-09-05T12:15:45.228Z,22.2
2017-09-05T12:16:53.320Z,22.3
2017-09-05T12:18:01.400Z,22.3
2017-09-05T12:19:09.488Z,22.3
2017-09-05T12:20:17.576Z,22.3
2017-09-05T12:21:25.665Z,22.3
2017-09-05T12:22:33.761Z,22.3
2017-09-05T12:23:41.851Z,22.3
2017-09-05T12:24:49.938Z,22.4
2017-09-05T12:25:58.025Z,22.3
2017-09-05T12:27:06.109Z,22.3
2017-09-05T12:28:14.201Z,22.4
2017-09-05T12:29:22.289Z,22.3
2017-09-05T12:30:30.377Z,22.4
2017-09-05T12:31:38.469Z,22.4
2017-09-05T12:32:46.561Z,22.3
2017-09-05T12:33:54.643Z,22.4
2017-09-05T12:35:02.737Z,22.3
2017-09-05T12:36:10.828Z,22.4
2017-09-05T12:37:18.915Z,22.4
2017-09-05T12:38:27.004Z,22.4
2017-09-05T12:39:35.091Z,22.4
2017-09-05T12:40:43.180Z,22.4
2017-09-05T12:41:51.266Z,22.4
2017-09-05T12:42:59.354Z,22.4
2017-09-05T12:44:07.441Z,22.4
2017-09-05T12:45:15.537Z,22.4
2017-09-05T12:46:23.629Z,22.4
2017-09-05T12:47:31.729Z,22.4
2017-09-05T12:48:39.815Z,22.4
2017-09-05T12:49:47.904Z,22.4
2017-09-05T12:50:55.993Z,22.5
2017-09-05T12:52:04.083Z,22.4
2017-09-05T12:53:12.176Z,22.4
2017-09-05T12:54:20.264Z,22.4
2017-09-05T12:55:28.379Z,22.4
2017-09-05T12:56:36.445Z,22.5
2017-09-05T12:57:44.546Z,22.5
2017-09-05T12:58:52.623Z,22.4
2017-09-05T13:00:00.711Z,22.5
2017-09-05T13:01:08.798Z,22.4
2017-09-05T13:02:16.907Z,22.5
2017-09-05T13:03:24.996Z,22.5
2017-09-05T13:04:33.084Z,22.5
2017-09-05T13:05:41.172Z,22.5
2017-09-05T13:06:49.321Z,22.5
2017-09-05T13:07:57.392Z,22.5
2017-09-05T13:09:05.484Z,22.5
2017-09-05T13:10:13.568Z,22.6
2017-09-05T13:11:21.653Z,22.5
2017-09-05T13:12:29.742Z,22.6
2017-09-05T13:13:37.829Z,22.5
2017-09-05T13:14:45.930Z,22.5
2017-09-05T13:15:54.020Z,22.6
2017-09-05T13:17:02.111Z,22.6
2017-09-05T13:18:10.196Z,22.5
2017-09-05T13:19:18.283Z,22.5
2017-09-05T13:20:26.370Z,22.5
2017-09-05T13:21:34.463Z,22.6
2017-09-05T13:22:42.599Z,22.6
2017-09-05T13:23:50.686Z,22.5
2017-09-05T13:24:58.773Z,22.5
2017-09-05T13:26:06.861Z,22.5
2017-09-05T13:27:14.950Z,22.5
2017-09-05T13:28:23.038Z,22.5
2017-09-05T13:29:31.125Z,22.6
2017-09-05T13:30:39.212Z,22.5
2017-09-05T13:31:47.301Z,22.5
2017-09-05T13:32:55.387Z,22.5
2017-09-05T13:34:03.475Z,22.5
2017-09-05T13:35:11.563Z,22.5
2017-09-05T13:36:19.655Z,22.5
2017-09-05T13:37:27.739Z,22.5
2017-09-05T13:38:35.833Z,22.5
2017-09-05T13:39:43.914Z,22.5
2017-09-05T13:40:52.002Z,22.5
2017-09-05T13:42:00.098Z,22.6
2017-09-05T13:43:08.180Z,22.5
2017-09-05T13:44:16.268Z,22.5
2017-09-05T13:45:24.353Z,22.6
2017-09-05T13:46:32.444Z,22.6
2017-09-05T13:47:40.536Z,22.6
2017-09-05T13:48:48.618Z,22.6
2017-09-05T13:49:56.711Z,22.5
2017-09-05T13:51:04.801Z,22.5
2017-09-05T13:52:12.906Z,22.6
2017-09-05T13:53:20.972Z,22.6
2017-09-05T13:54:29.061Z,22.6
2017-09-05T13:55:37.147Z,22.6
2017-09-05T13:56:45.269Z,22.5
2017-09-05T13:57:53.324Z,22.5
2017-09-05T13:59:01.414Z,22.6
2017-09-05T14:00:09.502Z,22.5
2017-09-05T14:01:17.591Z,22.6
2017-09-05T14:02:25.687Z,22.5
2017-09-05T14:03:33.774Z,22.6
2017-09-05T14:04:41.864Z,22.6
2017-09-05T14:05:49.950Z,22.6
2017-09-05T14:06:58.048Z,22.6
2017-09-05T14:08:06.137Z,22.6
2017-09-05T14:09:14.222Z,22.6
2017-09-05T14:10:22.310Z,22.6
2017-09-05T14:11:30.406Z,22.5
2017-09-05T14:12:38.497Z,22.6
2017-09-05T14:13:46.589Z,22.6
2017-09-05T14:14:54.677Z,22.6
2017-09-05T14:16:02.765Z,22.6
2017-09-05T14:17:10.865Z,22.6
2017-09-05T14:18:18.940Z,22.5
2017-09-05T14:19:27.029Z,22.6
2017-09-05T14:20:35.136Z,22.6
2017-09-05T14:21:43.225Z,22.6
2017-09-05T14:22:51.318Z,22.6
2017-09-05T14:23:59.402Z,22.6
2017-09-05T14:25:07.496Z,22.5
2017-09-05T14:26:15.584Z,22.6
2017-09-05T14:27:23.693Z,22.6
2017-09-05T14:28:31.788Z,22.6
2017-09-05T14:29:39.874Z,22.6
2017-09-05T14:30:47.956Z,22.6
2017-09-05T14:31:56.044Z,22.6
2017-09-05T14:33:04.132Z,22.6
2017-09-05T14:34:12.220Z,22.6
2017-09-05T14:35:20.307Z,22.6
2017-09-05T14:36:28.398Z,22.6
2017-09-05T14:37:36.483Z,22.6
2017-09-05T14:38:44.572Z,22.6
2017-09-05T14:39:52.663Z,22.6
2017-09-05T14:41:00.747Z,22.6
2017-09-05T14:42:08.837Z,22.6
2017-09-05T14:43:16.925Z,22.6
2017-09-05T14:44:25.012Z,22.6
2017-09-05T14:45:33.099Z,22.6
2017-09-05T14:46:41.187Z,22.6
2017-09-05T14:47:49.276Z,22.6
2017-09-05T14:48:57.364Z,22.6
2017-09-05T14:50:05.453Z,22.6
2017-09-05T14:51:13.550Z,22.6
2017-09-05T14:52:21.638Z,22.5
2017-09-05T14:53:29.743Z,22.6
2017-09-05T14:54:37.831Z,22.6
2017-09-05T14:55:45.919Z,22.6
2017-09-05T14:56:54.011Z,22.6
2017-09-05T14:58:02.109Z,22.6
2017-09-05T14:59:10.195Z,22.5
2017-09-05T15:00:18.283Z,22.6
2017-09-05T15:01:26.371Z,22.5
2017-09-05T15:02:34.462Z,22.6
2017-09-05T15:03:42.566Z,22.6
2017-09-05T15:04:50.635Z,22.6
2017-09-05T15:05:58.750Z,22.5